sensor_id;sensor_type;location;lat;lon;timestamp;temperature;humidity
11112;DHT22;5609;49.466;8.468;2022-11-15T00:02:20;12.10;99.90
11112;DHT22;5609;49.466;8.468;2022-11-15T00:04:48;12.00;99.90
11112;DHT22;5609;49.466;8.468;2022-11-15T00:07:15;11.90;99.90
11112;DHT22;5609;49.466;8.468;2022-11-15T00:09:42;11.80;99.90
11112;DHT22;5609;49.466;8.468;2022-11-15T00:12:08;11.70;99.90
11112;DHT22;5609;49.466;8.468;2022-11-15T00:14:35;11.60;99.90
11112;DHT22;5609;49.466;8.468;2022-11-15T00:17:02;11.50;99.90
11112;DHT22;5609;49.466;8.468;2022-11-15T00:19:29;11.50;99.90
11112;DHT22;5609;49.466;8.468;2022-11-15T00:21:57;11.40;99.90
11112;DHT22;5609;49.466;8.468;2022-11-15T00:24:24;11.40;99.90
11112;DHT22;5609;49.466;8.468;2022-11-15T00:26:50;11.30;99.90
11112;DHT22;5609;49.466;8.468;2022-11-15T00:29:17;11.30;99.90
11112;DHT22;5609;49.466;8.468;2022-11-15T00:31:44;11.30;99.90
11112;DHT22;5609;49.466;8.468;2022-11-15T00:34:11;11.20;99.90
11112;DHT22;5609;49.466;8.468;2022-11-15T00:36:38;11.20;99.90
11112;DHT22;5609;49.466;8.468;2022-11-15T00:39:06;11.20;99.90
11112;DHT22;5609;49.466;8.468;2022-11-15T00:41:32;11.20;99.90
11112;DHT22;5609;49.466;8.468;2022-11-15T00:43:59;11.20;99.90
11112;DHT22;5609;49.466;8.468;2022-11-15T00:46:26;11.20;99.90
11112;DHT22;5609;49.466;8.468;2022-11-15T00:48:53;11.20;99.90
11112;DHT22;5609;49.466;8.468;2022-11-15T00:51:19;11.20;99.90
11112;DHT22;5609;49.466;8.468;2022-11-15T00:53:46;11.20;99.90
11112;DHT22;5609;49.466;8.468;2022-11-15T00:56:14;11.20;99.90
11112;DHT22;5609;49.466;8.468;2022-11-15T00:58:41;11.20;99.90
11112;DHT22;5609;49.466;8.468;2022-11-15T01:01:09;11.30;99.90
11112;DHT22;5609;49.466;8.468;2022-11-15T01:03:37;11.20;99.90
11112;DHT22;5609;49.466;8.468;2022-11-15T01:06:04;11.20;99.90
11112;DHT22;5609;49.466;8.468;2022-11-15T01:08:31;11.20;99.90
11112;DHT22;5609;49.466;8.468;2022-11-15T01:11:01;11.20;99.90
11112;DHT22;5609;49.466;8.468;2022-11-15T01:13:31;11.20;99.90
11112;DHT22;5609;49.466;8.468;2022-11-15T01:15:58;11.20;99.90
11112;DHT22;5609;49.466;8.468;2022-11-15T01:18:25;11.20;99.90
11112;DHT22;5609;49.466;8.468;2022-11-15T01:20:52;11.20;99.90
11112;DHT22;5609;49.466;8.468;2022-11-15T01:23:19;11.20;99.90
11112;DHT22;5609;49.466;8.468;2022-11-15T01:25:45;11.20;99.90
11112;DHT22;5609;49.466;8.468;2022-11-15T01:28:12;11.10;99.90
11112;DHT22;5609;49.466;8.468;2022-11-15T01:30:40;11.20;99.90
11112;DHT22;5609;49.466;8.468;2022-11-15T01:33:07;11.20;99.90
11112;DHT22;5609;49.466;8.468;2022-11-15T01:35:38;11.10;99.90
11112;DHT22;5609;49.466;8.468;2022-11-15T01:38:05;11.10;99.90
11112;DHT22;5609;49.466;8.468;2022-11-15T01:40:31;11.10;99.90
11112;DHT22;5609;49.466;8.468;2022-11-15T01:42:58;11.10;99.90
11112;DHT22;5609;49.466;8.468;2022-11-15T01:45:25;11.00;99.90
11112;DHT22;5609;49.466;8.468;2022-11-15T01:47:54;11.00;99.90
11112;DHT22;5609;49.466;8.468;2022-11-15T01:50:24;11.00;99.90
11112;DHT22;5609;49.466;8.468;2022-11-15T01:52:53;10.90;99.90
11112;DHT22;5609;49.466;8.468;2022-11-15T01:55:21;10.90;99.90
11112;DHT22;5609;49.466;8.468;2022-11-15T01:57:51;10.80;99.90
11112;DHT22;5609;49.466;8.468;2022-11-15T02:00:18;10.80;99.90
11112;DHT22;5609;49.466;8.468;2022-11-15T02:02:45;10.80;99.90
11112;DHT22;5609;49.466;8.468;2022-11-15T02:05:13;10.70;99.90
11112;DHT22;5609;49.466;8.468;2022-11-15T02:07:40;10.70;99.90
11112;DHT22;5609;49.466;8.468;2022-11-15T02:10:09;10.60;99.90
11112;DHT22;5609;49.466;8.468;2022-11-15T02:12:36;10.60;99.90
11112;DHT22;5609;49.466;8.468;2022-11-15T02:15:04;10.60;99.90
11112;DHT22;5609;49.466;8.468;2022-11-15T02:17:43;10.60;99.90
11112;DHT22;5609;49.466;8.468;2022-11-15T02:20:35;10.50;99.90
11112;DHT22;5609;49.466;8.468;2022-11-15T02:23:31;10.50;99.90
11112;DHT22;5609;49.466;8.468;2022-11-15T02:26:18;10.50;99.90
11112;DHT22;5609;49.466;8.468;2022-11-15T02:28:58;10.50;99.90
11112;DHT22;5609;49.466;8.468;2022-11-15T02:31:29;10.60;99.90
11112;DHT22;5609;49.466;8.468;2022-11-15T02:34:04;10.50;99.90
11112;DHT22;5609;49.466;8.468;2022-11-15T02:36:39;10.60;99.90
11112;DHT22;5609;49.466;8.468;2022-11-15T02:39:11;10.50;99.90
11112;DHT22;5609;49.466;8.468;2022-11-15T02:41:45;10.60;99.90
11112;DHT22;5609;49.466;8.468;2022-11-15T02:44:16;10.60;99.90
11112;DHT22;5609;49.466;8.468;2022-11-15T02:46:48;10.60;99.90
11112;DHT22;5609;49.466;8.468;2022-11-15T02:49:34;10.60;99.90
11112;DHT22;5609;49.466;8.468;2022-11-15T02:52:02;10.60;99.90
11112;DHT22;5609;49.466;8.468;2022-11-15T02:54:30;10.60;99.90
11112;DHT22;5609;49.466;8.468;2022-11-15T02:57:01;10.50;99.90
11112;DHT22;5609;49.466;8.468;2022-11-15T03:02:55;10.60;99.90
11112;DHT22;5609;49.466;8.468;2022-11-15T03:05:31;10.60;99.90
11112;DHT22;5609;49.466;8.468;2022-11-15T03:08:04;10.50;99.90
11112;DHT22;5609;49.466;8.468;2022-11-15T03:10:42;10.60;99.90
11112;DHT22;5609;49.466;8.468;2022-11-15T03:13:21;10.60;99.90
11112;DHT22;5609;49.466;8.468;2022-11-15T03:15:56;10.70;99.90
11112;DHT22;5609;49.466;8.468;2022-11-15T03:18:31;10.80;99.90
11112;DHT22;5609;49.466;8.468;2022-11-15T03:21:00;10.80;99.90
11112;DHT22;5609;49.466;8.468;2022-11-15T03:23:30;10.80;99.90
11112;DHT22;5609;49.466;8.468;2022-11-15T03:25:58;10.80;99.90
11112;DHT22;5609;49.466;8.468;2022-11-15T03:28:30;10.80;99.90
11112;DHT22;5609;49.466;8.468;2022-11-15T03:31:00;10.80;99.90
11112;DHT22;5609;49.466;8.468;2022-11-15T03:33:50;10.80;99.90
11112;DHT22;5609;49.466;8.468;2022-11-15T03:36:21;10.80;99.90
11112;DHT22;5609;49.466;8.468;2022-11-15T03:38:49;10.80;99.90
11112;DHT22;5609;49.466;8.468;2022-11-15T03:41:21;10.80;99.90
11112;DHT22;5609;49.466;8.468;2022-11-15T03:43:54;10.80;99.90
11112;DHT22;5609;49.466;8.468;2022-11-15T03:46:25;10.80;99.90
11112;DHT22;5609;49.466;8.468;2022-11-15T03:49:00;10.80;99.90
11112;DHT22;5609;49.466;8.468;2022-11-15T03:51:30;10.80;99.90
11112;DHT22;5609;49.466;8.468;2022-11-15T03:53:56;10.90;99.90
11112;DHT22;5609;49.466;8.468;2022-11-15T03:56:23;10.90;99.90
11112;DHT22;5609;49.466;8.468;2022-11-15T03:58:50;10.90;99.90
11112;DHT22;5609;49.466;8.468;2022-11-15T04:01:17;11.00;99.90
11112;DHT22;5609;49.466;8.468;2022-11-15T04:03:43;11.00;99.90
11112;DHT22;5609;49.466;8.468;2022-11-15T04:06:11;11.00;99.90
11112;DHT22;5609;49.466;8.468;2022-11-15T04:08:38;11.00;99.90
11112;DHT22;5609;49.466;8.468;2022-11-15T04:11:05;11.00;99.90
11112;DHT22;5609;49.466;8.468;2022-11-15T04:13:32;11.00;99.90
11112;DHT22;5609;49.466;8.468;2022-11-15T04:15:58;11.00;99.90
11112;DHT22;5609;49.466;8.468;2022-11-15T04:18:25;11.00;99.90
11112;DHT22;5609;49.466;8.468;2022-11-15T04:20:52;11.10;99.90
11112;DHT22;5609;49.466;8.468;2022-11-15T04:23:37;11.00;99.90
11112;DHT22;5609;49.466;8.468;2022-11-15T04:26:20;11.10;99.90
11112;DHT22;5609;49.466;8.468;2022-11-15T04:28:47;11.00;99.90
11112;DHT22;5609;49.466;8.468;2022-11-15T04:31:28;11.10;99.90
11112;DHT22;5609;49.466;8.468;2022-11-15T04:33:55;11.10;99.90
11112;DHT22;5609;49.466;8.468;2022-11-15T04:36:22;11.10;99.90
11112;DHT22;5609;49.466;8.468;2022-11-15T04:39:08;11.10;99.90
11112;DHT22;5609;49.466;8.468;2022-11-15T04:41:34;11.00;99.90
11112;DHT22;5609;49.466;8.468;2022-11-15T04:44:01;11.10;99.90
11112;DHT22;5609;49.466;8.468;2022-11-15T04:46:28;11.10;99.90
11112;DHT22;5609;49.466;8.468;2022-11-15T04:48:55;11.10;99.90
11112;DHT22;5609;49.466;8.468;2022-11-15T04:51:22;11.10;99.90
11112;DHT22;5609;49.466;8.468;2022-11-15T04:53:49;11.10;99.90
11112;DHT22;5609;49.466;8.468;2022-11-15T04:56:17;11.10;99.90
11112;DHT22;5609;49.466;8.468;2022-11-15T04:58:43;11.10;99.90
11112;DHT22;5609;49.466;8.468;2022-11-15T05:01:12;11.10;99.90
11112;DHT22;5609;49.466;8.468;2022-11-15T05:03:39;11.10;99.90
11112;DHT22;5609;49.466;8.468;2022-11-15T05:06:24;11.10;99.90
11112;DHT22;5609;49.466;8.468;2022-11-15T05:08:51;11.00;99.90
11112;DHT22;5609;49.466;8.468;2022-11-15T05:11:19;11.00;99.90
11112;DHT22;5609;49.466;8.468;2022-11-15T05:13:46;11.00;99.90
11112;DHT22;5609;49.466;8.468;2022-11-15T05:16:13;11.00;99.90
11112;DHT22;5609;49.466;8.468;2022-11-15T05:18:39;11.00;99.90
11112;DHT22;5609;49.466;8.468;2022-11-15T05:21:08;11.00;99.90
11112;DHT22;5609;49.466;8.468;2022-11-15T05:23:35;11.00;99.90
11112;DHT22;5609;49.466;8.468;2022-11-15T05:26:03;11.00;99.90
11112;DHT22;5609;49.466;8.468;2022-11-15T05:28:33;11.00;99.90
11112;DHT22;5609;49.466;8.468;2022-11-15T05:31:02;10.90;99.90
11112;DHT22;5609;49.466;8.468;2022-11-15T05:33:29;10.90;99.90
11112;DHT22;5609;49.466;8.468;2022-11-15T05:36:02;10.90;99.90
11112;DHT22;5609;49.466;8.468;2022-11-15T05:38:30;10.90;99.90
11112;DHT22;5609;49.466;8.468;2022-11-15T05:40:58;10.90;99.90
11112;DHT22;5609;49.466;8.468;2022-11-15T05:43:26;10.90;99.90
11112;DHT22;5609;49.466;8.468;2022-11-15T05:45:54;10.90;99.90
11112;DHT22;5609;49.466;8.468;2022-11-15T05:48:21;10.90;99.90
11112;DHT22;5609;49.466;8.468;2022-11-15T05:50:48;10.90;99.90
11112;DHT22;5609;49.466;8.468;2022-11-15T05:53:16;10.90;99.90
11112;DHT22;5609;49.466;8.468;2022-11-15T05:55:44;10.90;99.90
11112;DHT22;5609;49.466;8.468;2022-11-15T05:58:12;10.90;99.90
11112;DHT22;5609;49.466;8.468;2022-11-15T06:00:39;10.90;99.90
11112;DHT22;5609;49.466;8.468;2022-11-15T06:03:07;10.80;99.90
11112;DHT22;5609;49.466;8.468;2022-11-15T06:05:34;10.80;99.90
11112;DHT22;5609;49.466;8.468;2022-11-15T06:08:01;10.70;99.90
11112;DHT22;5609;49.466;8.468;2022-11-15T06:10:28;10.60;99.90
11112;DHT22;5609;49.466;8.468;2022-11-15T06:12:58;10.60;99.90
11112;DHT22;5609;49.466;8.468;2022-11-15T06:15:27;10.60;99.90
11112;DHT22;5609;49.466;8.468;2022-11-15T06:17:56;10.50;99.90
11112;DHT22;5609;49.466;8.468;2022-11-15T06:20:25;10.50;99.90
11112;DHT22;5609;49.466;8.468;2022-11-15T06:22:56;10.50;99.90
11112;DHT22;5609;49.466;8.468;2022-11-15T06:25:23;10.50;99.90
11112;DHT22;5609;49.466;8.468;2022-11-15T06:27:51;10.50;99.90
11112;DHT22;5609;49.466;8.468;2022-11-15T06:30:18;10.50;99.90
11112;DHT22;5609;49.466;8.468;2022-11-15T06:32:45;10.50;99.90
11112;DHT22;5609;49.466;8.468;2022-11-15T06:35:12;10.50;99.90
11112;DHT22;5609;49.466;8.468;2022-11-15T06:37:40;10.50;99.90
11112;DHT22;5609;49.466;8.468;2022-11-15T06:40:08;10.50;99.90
11112;DHT22;5609;49.466;8.468;2022-11-15T06:42:35;10.60;99.90
11112;DHT22;5609;49.466;8.468;2022-11-15T06:45:03;10.60;99.90
11112;DHT22;5609;49.466;8.468;2022-11-15T06:47:30;10.90;99.90
11112;DHT22;5609;49.466;8.468;2022-11-15T06:49:56;11.40;99.90
11112;DHT22;5609;49.466;8.468;2022-11-15T06:52:23;11.60;99.90
11112;DHT22;5609;49.466;8.468;2022-11-15T06:54:51;11.80;99.90
11112;DHT22;5609;49.466;8.468;2022-11-15T06:57:18;12.10;99.90
11112;DHT22;5609;49.466;8.468;2022-11-15T06:59:45;12.40;99.90
11112;DHT22;5609;49.466;8.468;2022-11-15T07:02:12;12.60;99.90
11112;DHT22;5609;49.466;8.468;2022-11-15T07:04:39;12.60;99.90
11112;DHT22;5609;49.466;8.468;2022-11-15T07:07:06;12.90;99.90
11112;DHT22;5609;49.466;8.468;2022-11-15T07:09:33;13.00;99.90
11112;DHT22;5609;49.466;8.468;2022-11-15T07:12:01;13.20;99.90
11112;DHT22;5609;49.466;8.468;2022-11-15T07:14:27;13.20;99.90
11112;DHT22;5609;49.466;8.468;2022-11-15T07:16:54;13.10;99.90
11112;DHT22;5609;49.466;8.468;2022-11-15T07:19:21;13.30;99.90
11112;DHT22;5609;49.466;8.468;2022-11-15T07:21:48;13.50;99.90
11112;DHT22;5609;49.466;8.468;2022-11-15T07:24:14;13.60;99.90
11112;DHT22;5609;49.466;8.468;2022-11-15T07:26:41;13.50;99.90
11112;DHT22;5609;49.466;8.468;2022-11-15T07:29:09;13.50;99.90
11112;DHT22;5609;49.466;8.468;2022-11-15T07:31:36;13.40;99.90
11112;DHT22;5609;49.466;8.468;2022-11-15T07:34:03;13.20;99.90
11112;DHT22;5609;49.466;8.468;2022-11-15T07:36:30;13.20;99.90
11112;DHT22;5609;49.466;8.468;2022-11-15T07:38:56;13.20;99.90
11112;DHT22;5609;49.466;8.468;2022-11-15T07:41:23;13.10;99.90
11112;DHT22;5609;49.466;8.468;2022-11-15T07:43:51;13.10;99.90
11112;DHT22;5609;49.466;8.468;2022-11-15T07:46:19;13.20;99.90
11112;DHT22;5609;49.466;8.468;2022-11-15T07:48:46;13.20;99.90
11112;DHT22;5609;49.466;8.468;2022-11-15T07:51:13;13.20;99.90
11112;DHT22;5609;49.466;8.468;2022-11-15T07:53:40;13.30;99.90
11112;DHT22;5609;49.466;8.468;2022-11-15T07:56:07;13.40;99.90
11112;DHT22;5609;49.466;8.468;2022-11-15T07:58:34;13.40;99.90
11112;DHT22;5609;49.466;8.468;2022-11-15T08:01:02;13.40;99.90
11112;DHT22;5609;49.466;8.468;2022-11-15T08:03:32;13.40;99.90
11112;DHT22;5609;49.466;8.468;2022-11-15T08:05:59;13.60;99.90
11112;DHT22;5609;49.466;8.468;2022-11-15T08:08:25;13.60;99.90
11112;DHT22;5609;49.466;8.468;2022-11-15T08:10:52;13.50;99.90
11112;DHT22;5609;49.466;8.468;2022-11-15T08:13:19;13.50;99.90
11112;DHT22;5609;49.466;8.468;2022-11-15T08:15:46;13.50;99.90
11112;DHT22;5609;49.466;8.468;2022-11-15T08:18:14;13.50;99.90
11112;DHT22;5609;49.466;8.468;2022-11-15T08:20:43;13.40;99.90
11112;DHT22;5609;49.466;8.468;2022-11-15T08:23:11;13.40;99.90
11112;DHT22;5609;49.466;8.468;2022-11-15T08:25:38;13.40;99.90
11112;DHT22;5609;49.466;8.468;2022-11-15T08:28:06;13.50;99.90
11112;DHT22;5609;49.466;8.468;2022-11-15T08:30:36;13.60;99.90
11112;DHT22;5609;49.466;8.468;2022-11-15T08:33:04;13.70;99.90
11112;DHT22;5609;49.466;8.468;2022-11-15T08:35:30;13.80;99.90
11112;DHT22;5609;49.466;8.468;2022-11-15T08:37:58;13.80;99.90
11112;DHT22;5609;49.466;8.468;2022-11-15T08:40:25;13.80;99.90
11112;DHT22;5609;49.466;8.468;2022-11-15T08:42:52;13.70;99.90
11112;DHT22;5609;49.466;8.468;2022-11-15T08:45:20;13.80;99.90
11112;DHT22;5609;49.466;8.468;2022-11-15T08:47:46;13.90;99.90
11112;DHT22;5609;49.466;8.468;2022-11-15T08:50:13;13.70;99.90
11112;DHT22;5609;49.466;8.468;2022-11-15T08:52:40;13.70;99.90
11112;DHT22;5609;49.466;8.468;2022-11-15T08:55:09;13.80;99.90
11112;DHT22;5609;49.466;8.468;2022-11-15T08:57:35;13.90;99.90
11112;DHT22;5609;49.466;8.468;2022-11-15T09:00:03;13.90;99.90
11112;DHT22;5609;49.466;8.468;2022-11-15T09:02:30;13.90;99.90
11112;DHT22;5609;49.466;8.468;2022-11-15T09:04:57;13.90;99.90
11112;DHT22;5609;49.466;8.468;2022-11-15T09:07:23;14.00;99.90
11112;DHT22;5609;49.466;8.468;2022-11-15T09:09:50;13.90;99.90
11112;DHT22;5609;49.466;8.468;2022-11-15T09:12:18;13.80;99.90
11112;DHT22;5609;49.466;8.468;2022-11-15T09:14:45;13.80;99.90
11112;DHT22;5609;49.466;8.468;2022-11-15T09:17:12;13.80;99.90
11112;DHT22;5609;49.466;8.468;2022-11-15T09:19:38;13.70;99.90
11112;DHT22;5609;49.466;8.468;2022-11-15T09:22:06;13.60;99.90
11112;DHT22;5609;49.466;8.468;2022-11-15T09:24:33;13.50;99.90
11112;DHT22;5609;49.466;8.468;2022-11-15T09:27:00;13.60;99.90
11112;DHT22;5609;49.466;8.468;2022-11-15T09:29:28;13.50;99.90
11112;DHT22;5609;49.466;8.468;2022-11-15T09:31:55;13.50;99.90
11112;DHT22;5609;49.466;8.468;2022-11-15T09:34:21;13.50;99.90
11112;DHT22;5609;49.466;8.468;2022-11-15T09:36:48;13.60;99.90
11112;DHT22;5609;49.466;8.468;2022-11-15T09:39:15;13.70;99.90
11112;DHT22;5609;49.466;8.468;2022-11-15T09:41:56;13.80;99.90
11112;DHT22;5609;49.466;8.468;2022-11-15T09:44:53;13.90;99.90
11112;DHT22;5609;49.466;8.468;2022-11-15T09:47:42;14.00;99.90
11112;DHT22;5609;49.466;8.468;2022-11-15T09:50:15;14.10;99.90
11112;DHT22;5609;49.466;8.468;2022-11-15T09:52:44;14.20;99.90
11112;DHT22;5609;49.466;8.468;2022-11-15T09:55:12;14.20;99.90
11112;DHT22;5609;49.466;8.468;2022-11-15T09:57:52;14.30;99.90
11112;DHT22;5609;49.466;8.468;2022-11-15T10:00:27;14.30;99.90
11112;DHT22;5609;49.466;8.468;2022-11-15T10:03:08;14.30;99.90
11112;DHT22;5609;49.466;8.468;2022-11-15T10:05:39;14.30;99.90
11112;DHT22;5609;49.466;8.468;2022-11-15T10:08:15;14.30;99.90
11112;DHT22;5609;49.466;8.468;2022-11-15T10:10:48;14.30;99.90
11112;DHT22;5609;49.466;8.468;2022-11-15T10:13:20;14.30;99.90
11112;DHT22;5609;49.466;8.468;2022-11-15T10:15:51;14.30;99.90
11112;DHT22;5609;49.466;8.468;2022-11-15T10:18:24;14.30;99.90
11112;DHT22;5609;49.466;8.468;2022-11-15T10:20:58;14.30;99.90
11112;DHT22;5609;49.466;8.468;2022-11-15T10:23:27;14.40;99.90
11112;DHT22;5609;49.466;8.468;2022-11-15T10:25:57;14.30;99.90
11112;DHT22;5609;49.466;8.468;2022-11-15T10:28:26;14.20;99.90
11112;DHT22;5609;49.466;8.468;2022-11-15T10:30:56;14.30;99.90
11112;DHT22;5609;49.466;8.468;2022-11-15T10:33:29;14.30;99.90
11112;DHT22;5609;49.466;8.468;2022-11-15T10:36:24;14.30;99.90
11112;DHT22;5609;49.466;8.468;2022-11-15T10:38:58;14.30;99.90
11112;DHT22;5609;49.466;8.468;2022-11-15T10:41:35;14.30;99.90
11112;DHT22;5609;49.466;8.468;2022-11-15T10:44:17;14.30;99.90
11112;DHT22;5609;49.466;8.468;2022-11-15T10:46:47;14.40;99.90
11112;DHT22;5609;49.466;8.468;2022-11-15T10:49:17;14.40;99.90
11112;DHT22;5609;49.466;8.468;2022-11-15T10:51:46;14.50;99.90
11112;DHT22;5609;49.466;8.468;2022-11-15T10:54:16;14.50;99.90
11112;DHT22;5609;49.466;8.468;2022-11-15T10:56:50;14.50;99.90
11112;DHT22;5609;49.466;8.468;2022-11-15T10:59:23;14.50;99.90
11112;DHT22;5609;49.466;8.468;2022-11-15T11:01:52;14.50;99.90
11112;DHT22;5609;49.466;8.468;2022-11-15T11:04:19;14.50;99.90
11112;DHT22;5609;49.466;8.468;2022-11-15T11:06:47;14.50;99.90
11112;DHT22;5609;49.466;8.468;2022-11-15T11:09:24;14.40;99.90
11112;DHT22;5609;49.466;8.468;2022-11-15T11:11:53;14.40;99.90
11112;DHT22;5609;49.466;8.468;2022-11-15T11:14:22;14.30;99.90
11112;DHT22;5609;49.466;8.468;2022-11-15T11:16:54;14.30;99.90
11112;DHT22;5609;49.466;8.468;2022-11-15T11:22:19;14.50;99.90
11112;DHT22;5609;49.466;8.468;2022-11-15T11:24:54;14.50;99.90
11112;DHT22;5609;49.466;8.468;2022-11-15T11:27:33;14.70;99.90
11112;DHT22;5609;49.466;8.468;2022-11-15T11:30:08;14.90;99.90
11112;DHT22;5609;49.466;8.468;2022-11-15T11:32:52;15.10;99.90
11112;DHT22;5609;49.466;8.468;2022-11-15T11:35:25;15.30;99.90
11112;DHT22;5609;49.466;8.468;2022-11-15T11:37:57;15.40;99.90
11112;DHT22;5609;49.466;8.468;2022-11-15T11:40:29;15.40;99.90
11112;DHT22;5609;49.466;8.468;2022-11-15T11:43:02;15.30;99.90
11112;DHT22;5609;49.466;8.468;2022-11-15T11:48:40;15.30;99.90
11112;DHT22;5609;49.466;8.468;2022-11-15T11:51:13;15.30;99.90
11112;DHT22;5609;49.466;8.468;2022-11-15T11:53:46;15.40;99.90
11112;DHT22;5609;49.466;8.468;2022-11-15T11:56:21;15.40;99.90
11112;DHT22;5609;49.466;8.468;2022-11-15T11:58:50;15.40;99.90
11112;DHT22;5609;49.466;8.468;2022-11-15T12:01:22;15.40;99.90
11112;DHT22;5609;49.466;8.468;2022-11-15T12:03:55;15.40;99.90
11112;DHT22;5609;49.466;8.468;2022-11-15T12:06:28;15.40;99.90
11112;DHT22;5609;49.466;8.468;2022-11-15T12:09:00;15.20;99.90
11112;DHT22;5609;49.466;8.468;2022-11-15T12:11:30;15.20;99.90
11112;DHT22;5609;49.466;8.468;2022-11-15T12:14:03;15.30;99.90
11112;DHT22;5609;49.466;8.468;2022-11-15T12:16:32;15.30;99.90
11112;DHT22;5609;49.466;8.468;2022-11-15T12:19:02;15.30;99.90
11112;DHT22;5609;49.466;8.468;2022-11-15T12:21:41;15.30;99.90
11112;DHT22;5609;49.466;8.468;2022-11-15T12:24:13;15.30;99.90
11112;DHT22;5609;49.466;8.468;2022-11-15T12:26:46;15.30;99.90
11112;DHT22;5609;49.466;8.468;2022-11-15T12:29:18;15.40;99.90
11112;DHT22;5609;49.466;8.468;2022-11-15T12:31:49;15.40;99.90
11112;DHT22;5609;49.466;8.468;2022-11-15T12:34:36;15.40;99.90
11112;DHT22;5609;49.466;8.468;2022-11-15T12:37:32;15.40;99.90
11112;DHT22;5609;49.466;8.468;2022-11-15T12:40:27;15.30;99.90
11112;DHT22;5609;49.466;8.468;2022-11-15T12:46:02;15.10;99.90
11112;DHT22;5609;49.466;8.468;2022-11-15T12:48:48;15.20;99.90
11112;DHT22;5609;49.466;8.468;2022-11-15T12:51:20;15.20;99.90
11112;DHT22;5609;49.466;8.468;2022-11-15T12:53:47;15.10;99.90
11112;DHT22;5609;49.466;8.468;2022-11-15T12:56:23;15.20;99.90
11112;DHT22;5609;49.466;8.468;2022-11-15T12:58:53;15.10;99.90
11112;DHT22;5609;49.466;8.468;2022-11-15T13:01:59;15.10;99.90
11112;DHT22;5609;49.466;8.468;2022-11-15T13:04:28;15.10;99.90
11112;DHT22;5609;49.466;8.468;2022-11-15T13:07:00;15.10;99.90
11112;DHT22;5609;49.466;8.468;2022-11-15T13:09:51;15.10;99.90
11112;DHT22;5609;49.466;8.468;2022-11-15T13:12:48;15.10;99.90
11112;DHT22;5609;49.466;8.468;2022-11-15T13:18:37;15.30;99.90
11112;DHT22;5609;49.466;8.468;2022-11-15T13:21:18;15.20;99.90
11112;DHT22;5609;49.466;8.468;2022-11-15T13:24:04;15.20;99.90
11112;DHT22;5609;49.466;8.468;2022-11-15T13:26:31;15.20;99.90
11112;DHT22;5609;49.466;8.468;2022-11-15T13:28:59;15.20;99.90
11112;DHT22;5609;49.466;8.468;2022-11-15T13:31:36;15.20;99.90
11112;DHT22;5609;49.466;8.468;2022-11-15T13:34:18;15.20;99.90
11112;DHT22;5609;49.466;8.468;2022-11-15T13:36:46;15.30;99.90
11112;DHT22;5609;49.466;8.468;2022-11-15T13:39:26;15.30;99.90
11112;DHT22;5609;49.466;8.468;2022-11-15T13:41:53;15.20;99.90
11112;DHT22;5609;49.466;8.468;2022-11-15T13:44:22;15.10;99.90
11112;DHT22;5609;49.466;8.468;2022-11-15T13:46:49;15.10;99.90
11112;DHT22;5609;49.466;8.468;2022-11-15T13:49:29;15.10;99.90
11112;DHT22;5609;49.466;8.468;2022-11-15T13:51:57;15.10;99.90
11112;DHT22;5609;49.466;8.468;2022-11-15T13:54:28;15.10;99.90
11112;DHT22;5609;49.466;8.468;2022-11-15T13:56:59;15.00;99.90
11112;DHT22;5609;49.466;8.468;2022-11-15T13:59:30;15.00;99.90
11112;DHT22;5609;49.466;8.468;2022-11-15T14:02:01;15.00;99.90
11112;DHT22;5609;49.466;8.468;2022-11-15T14:04:30;15.10;99.90
11112;DHT22;5609;49.466;8.468;2022-11-15T14:06:59;15.00;99.90
11112;DHT22;5609;49.466;8.468;2022-11-15T14:09:34;15.10;99.90
11112;DHT22;5609;49.466;8.468;2022-11-15T14:14:45;15.00;99.90
11112;DHT22;5609;49.466;8.468;2022-11-15T14:17:20;15.00;99.90
11112;DHT22;5609;49.466;8.468;2022-11-15T14:19:49;14.80;99.90
11112;DHT22;5609;49.466;8.468;2022-11-15T14:22:19;14.90;99.90
11112;DHT22;5609;49.466;8.468;2022-11-15T14:25:07;14.80;99.90
11112;DHT22;5609;49.466;8.468;2022-11-15T14:27:34;14.70;99.90
11112;DHT22;5609;49.466;8.468;2022-11-15T14:30:02;14.70;99.90
11112;DHT22;5609;49.466;8.468;2022-11-15T14:32:41;14.70;99.90
11112;DHT22;5609;49.466;8.468;2022-11-15T14:35:13;14.60;99.90
11112;DHT22;5609;49.466;8.468;2022-11-15T14:37:41;14.70;99.90
11112;DHT22;5609;49.466;8.468;2022-11-15T14:40:13;14.70;99.90
11112;DHT22;5609;49.466;8.468;2022-11-15T14:42:41;14.70;99.90
11112;DHT22;5609;49.466;8.468;2022-11-15T14:45:12;14.60;99.90
11112;DHT22;5609;49.466;8.468;2022-11-15T14:47:40;14.50;99.90
11112;DHT22;5609;49.466;8.468;2022-11-15T14:50:11;14.50;99.90
11112;DHT22;5609;49.466;8.468;2022-11-15T14:52:38;14.50;99.90
11112;DHT22;5609;49.466;8.468;2022-11-15T14:55:14;14.50;99.90
11112;DHT22;5609;49.466;8.468;2022-11-15T14:57:42;14.50;99.90
11112;DHT22;5609;49.466;8.468;2022-11-15T15:00:09;14.60;99.90
11112;DHT22;5609;49.466;8.468;2022-11-15T15:02:36;14.60;99.90
11112;DHT22;5609;49.466;8.468;2022-11-15T15:05:14;14.60;99.90
11112;DHT22;5609;49.466;8.468;2022-11-15T15:07:41;14.60;99.90
11112;DHT22;5609;49.466;8.468;2022-11-15T15:10:10;14.50;99.90
11112;DHT22;5609;49.466;8.468;2022-11-15T15:12:36;14.60;99.90
11112;DHT22;5609;49.466;8.468;2022-11-15T15:15:05;14.50;99.90
11112;DHT22;5609;49.466;8.468;2022-11-15T15:17:32;14.50;99.90
11112;DHT22;5609;49.466;8.468;2022-11-15T15:19:59;14.50;99.90
11112;DHT22;5609;49.466;8.468;2022-11-15T15:22:28;14.50;99.90
11112;DHT22;5609;49.466;8.468;2022-11-15T15:24:55;14.50;99.90
11112;DHT22;5609;49.466;8.468;2022-11-15T15:27:23;14.50;99.90
11112;DHT22;5609;49.466;8.468;2022-11-15T15:29:50;14.50;99.90
11112;DHT22;5609;49.466;8.468;2022-11-15T15:32:17;14.50;99.90
11112;DHT22;5609;49.466;8.468;2022-11-15T15:34:44;14.50;99.90
11112;DHT22;5609;49.466;8.468;2022-11-15T15:37:22;14.40;99.90
11112;DHT22;5609;49.466;8.468;2022-11-15T15:39:50;14.40;99.90
11112;DHT22;5609;49.466;8.468;2022-11-15T15:42:18;14.30;99.90
11112;DHT22;5609;49.466;8.468;2022-11-15T15:44:46;14.40;99.90
11112;DHT22;5609;49.466;8.468;2022-11-15T15:47:15;14.30;99.90
11112;DHT22;5609;49.466;8.468;2022-11-15T15:49:42;14.30;99.90
11112;DHT22;5609;49.466;8.468;2022-11-15T15:52:09;14.30;99.90
11112;DHT22;5609;49.466;8.468;2022-11-15T15:54:37;14.30;99.90
11112;DHT22;5609;49.466;8.468;2022-11-15T15:57:04;14.20;99.90
11112;DHT22;5609;49.466;8.468;2022-11-15T15:59:31;14.20;99.90
11112;DHT22;5609;49.466;8.468;2022-11-15T16:01:59;14.30;99.90
11112;DHT22;5609;49.466;8.468;2022-11-15T16:04:26;14.30;99.90
11112;DHT22;5609;49.466;8.468;2022-11-15T16:06:58;14.10;99.90
11112;DHT22;5609;49.466;8.468;2022-11-15T16:09:24;14.10;99.90
11112;DHT22;5609;49.466;8.468;2022-11-15T16:12:05;14.00;99.90
11112;DHT22;5609;49.466;8.468;2022-11-15T16:14:32;14.00;99.90
11112;DHT22;5609;49.466;8.468;2022-11-15T16:17:00;14.00;99.90
11112;DHT22;5609;49.466;8.468;2022-11-15T16:19:26;14.00;99.90
11112;DHT22;5609;49.466;8.468;2022-11-15T16:21:53;14.00;99.90
11112;DHT22;5609;49.466;8.468;2022-11-15T16:24:20;14.00;99.90